Saturday, May 23, 2015, 12:12 AM EDT

KPHF, Williamsburg International Airport

Location: Newport News, VA, United States Lat: 37.133
Local Time: 12:12 AM EDT ( 4:12 GMT) Lon: -76.5
Time Zone: US/Eastern Elev: 42 ft

Show me the last for .
Show Decoded

2015-05-22 23:54 METAR KPHF 230354Z 23006KT 10SM CLR 19/09 A3024 RMK AO2 SLP240 T01890094 =
2015-05-22 22:54 METAR KPHF 230254Z 24005KT 10SM CLR 19/09 A3023 RMK AO2 SLP236 T01940089 53017 =
2015-05-22 21:54 METAR KPHF 230154Z 24005KT 10SM CLR 19/09 A3021 RMK AO2 SLP229 T01940089 =
2015-05-22 20:54 METAR KPHF 230054Z AUTO 22005KT 10SM CLR 20/09 A3019 =
2015-05-22 19:54 METAR KPHF 222354Z AUTO 24006KT 10SM CLR 22/08 A3018 RMK AO2 SLP219 T02220083
                 10250 20222 53010 =
2015-05-22 18:54 METAR KPHF 222254Z AUTO 24008KT 10SM CLR 24/08 A3015 RMK AO2 SLP210 T02390078 =
2015-05-22 17:54 METAR KPHF 222154Z AUTO 29009KT 10SM CLR 25/07 A3015 RMK AO2 SLP209 T02500072 =
2015-05-22 16:54 METAR KPHF 222054Z AUTO 27008KT 10SM CLR 25/07 A3015 =
2015-05-22 15:54 METAR KPHF 221954Z AUTO VRB06G14KT 10SM CLR 24/07 A3015 =
2015-05-22 14:54 METAR KPHF 221854Z 26010KT 10SM CLR 24/07 A3015 RMK AO2 SLP208 T02390067 =
2015-05-22 13:54 METAR KPHF 221754Z 22008KT 180V270 10SM CLR 23/08 A3015 RMK AO2 SLP208 60000
                 T02330078 10239 20161 51004 =
2015-05-22 12:54 METAR KPHF 221654Z 29007KT 10SM CLR 23/06 A3014 RMK AO2 RAB24E33 SLP206 P0000
                 T02330061 =
2015-05-22 11:54 METAR KPHF 221554Z 31010KT 10SM CLR 22/07 A3014 =
2015-05-22 10:54 METAR KPHF 221454Z 33012KT 10SM CLR 21/08 A3014 =
2015-05-22 09:54 METAR KPHF 221354Z 34012G19KT 10SM CLR 19/08 A3012 RMK AO2 SLP200 T01890078 =
2015-05-22 08:54 METAR KPHF 221254Z 34010KT 10SM CLR 18/08 A3011 RMK AO2 SLP196 T01780083 =
2015-05-22 07:54 METAR KPHF 221154Z 33008KT 10SM CLR 16/09 A3009 RMK AO2 SLP189 70093 T01610089
                 10161 20128 52025 =
2015-05-22 06:54 METAR KPHF 221054Z 31005KT 10SM CLR 14/09 A3007 RMK AO2 SLP180 T01390089 =
2015-05-22 05:54 METAR KPHF 220954Z 31006KT 10SM CLR 13/09 A3005 RMK AO2 SLP174 T01280089 =
2015-05-22 04:54 METAR KPHF 220854Z 31007KT 10SM CLR 13/09 A3002 RMK AO2 SLP164 T01330094 53021 =
2015-05-22 03:54 METAR KPHF 220754Z 30006KT 10SM CLR 13/10 A2999 =
2015-05-22 02:54 METAR KPHF 220654Z 32005KT 10SM CLR 13/10 A2996 =
2015-05-22 02:25 METAR KPHF 220625Z 33007KT 10SM FEW010 SCT020 14/11 A2996 RMK AO2 T01390106 =
2015-05-22 02:02 METAR KPHF 220602Z 32007KT 10SM FEW013 BKN019 14/11 A2996 RMK AO2 T01440106 =
2015-05-22 01:54 METAR KPHF 220554Z 32008KT 10SM BKN014 BKN019 14/11 A2996 RMK AO2 SLP143
                 T01440106 10161 20144 51010 =
2015-05-22 01:14 METAR KPHF 220514Z 32009KT 10SM OVC012 15/11 A2996 RMK AO2 T01500111 =
2015-05-22 00:54 METAR KPHF 220454Z 32007KT 10SM BKN009 OVC014 15/11 A2996 RMK AO2 CIG 007V011
                 SLP143 T01500111 402000150 =

Support USWX by starting your Amazon purchase here.